Time;durP1;ratioP1;P1;durP2;ratioP2;P2;SDS_P1;SDS_P2;PMS_P1;PMS_P2;Temp;Humidity;BMP_temperature;BMP_pressure;BME280_temperature;BME280_humidity;BME280_pressure;Samples;Min_cycle;Max_cycle;Signal;HPM_P1;HPM_P2
2022/02/24 00:01:12;;;;;;;1.17;0.60;;;;;;;9.30;0.00;60892.56;4791876;28;20053;-91
2022/02/24 00:03:51;;;;;;;1.13;0.47;;;;;;;9.26;0.00;60892.56;4797268;28;20274;-91
2022/02/24 00:06:30;;;;;;;1.50;0.50;;;;;;;-145.06;0.00;60892.56;4787264;28;20026;-90
2022/02/24 00:09:09;;;;;;;2.92;0.70;;;;;;;9.25;0.00;60892.56;4808315;28;20046;-90
2022/02/24 00:11:48;;;;;;;0.60;0.40;;;;;;;9.28;0.00;60892.56;4798761;28;20050;-90
2022/02/24 00:14:27;;;;;;;2.20;0.70;;;;;;;9.25;0.00;60892.56;4790370;28;20030;-91
2022/02/24 00:17:07;;;;;;;1.70;0.65;;;;;;;-145.06;0.00;60892.56;4804975;28;20026;-90
2022/02/24 00:19:46;;;;;;;1.55;0.60;;;;;;;-145.06;0.00;60892.56;4782488;28;20039;-91
2022/02/24 00:22:26;;;;;;;1.15;0.50;;;;;;;-145.06;0.00;60892.56;4797875;28;20501;-90
2022/02/24 00:25:05;;;;;;;2.08;0.57;;;;;;;-145.06;0.00;60892.56;4806285;28;20042;-91
2022/02/24 00:27:45;;;;;;;1.02;0.55;;;;;;;9.30;0.00;60892.56;4803714;28;20038;-92
2022/02/24 00:30:24;;;;;;;0.50;0.50;;;;;;;-145.06;0.00;60892.56;4790235;28;20034;-91
2022/02/24 00:33:03;;;;;;;0.60;0.50;;;;;;;-145.06;0.00;60892.56;4801030;28;20035;-91
2022/02/24 00:35:42;;;;;;;2.40;0.80;;;;;;;-145.06;0.00;60892.56;4789796;28;20042;-91
2022/02/24 00:38:21;;;;;;;1.83;0.68;;;;;;;9.35;0.00;60892.56;4771163;29;20031;-90
2022/02/24 00:41:00;;;;;;;2.15;0.98;;;;;;;-145.06;0.00;60892.56;4779905;28;20066;-90
2022/02/24 00:43:40;;;;;;;1.13;0.50;;;;;;;-145.06;0.00;60892.56;4796698;28;20182;-91
2022/02/24 00:46:19;;;;;;;0.70;0.50;;;;;;;9.38;0.00;60892.56;4802650;28;20031;-90
2022/02/24 00:48:58;;;;;;;1.98;0.60;;;;;;;-145.06;0.00;60892.56;4790536;28;20042;-89
2022/02/24 00:51:37;;;;;;;0.90;0.50;;;;;;;9.34;0.00;60892.56;4807387;28;20489;-91
2022/02/24 00:54:16;;;;;;;1.75;0.80;;;;;;;9.35;0.00;60892.56;4803289;28;20046;-90
2022/02/24 00:56:55;;;;;;;0.90;0.65;;;;;;;-145.06;0.00;60892.56;4795879;28;20250;-91
2022/02/24 00:59:34;;;;;;;0.67;0.50;;;;;;;-145.06;0.00;60892.56;4796098;28;20121;-90
2022/02/24 01:02:13;;;;;;;1.23;0.40;;;;;;;-145.06;0.00;60892.56;4788876;28;20278;-90
2022/02/24 01:04:54;;;;;;;1.70;0.90;;;;;;;9.37;0.00;60892.56;4782710;28;20026;-91
2022/02/24 01:07:33;;;;;;;1.75;0.60;;;;;;;-145.06;0.00;60892.56;4799561;28;20379;-90
2022/02/24 01:10:12;;;;;;;2.75;0.80;;;;;;;21.08;0.00;60892.56;4791630;28;20069;-91
2022/02/24 01:12:51;;;;;;;1.15;0.57;;;;;;;9.38;0.00;60892.56;4808386;28;20058;-90
2022/02/24 01:15:30;;;;;;;1.33;0.73;;;;;;;10.68;0.00;60892.56;4803359;28;20031;-90
2022/02/24 01:18:10;;;;;;;1.70;0.47;;;;;;;-145.06;0.00;60892.56;4789877;28;20622;-90
2022/02/24 01:20:49;;;;;;;1.23;0.70;;;;;;;-145.06;0.00;60892.56;4802544;28;20034;-89
2022/02/24 01:23:27;;;;;;;1.27;0.63;;;;;;;-145.06;0.00;60892.56;4787001;28;20051;-90
2022/02/24 01:26:07;;;;;;;1.70;0.80;;;;;;;-145.06;0.00;60892.56;4793288;28;20278;-90
2022/02/24 01:28:47;;;;;;;1.13;0.60;;;;;;;-145.06;0.00;60892.56;4801302;28;20477;-90
2022/02/24 01:31:26;;;;;;;0.40;0.40;;;;;;;-145.06;0.00;60892.56;4801623;28;20046;-91
2022/02/24 01:34:05;;;;;;;1.48;0.77;;;;;;;-145.06;0.00;60892.56;4789020;28;20038;-91
2022/02/24 01:36:44;;;;;;;1.55;0.60;;;;;;;-145.06;0.00;60892.56;4800672;28;20058;-91
2022/02/24 01:39:23;;;;;;;2.43;0.53;;;;;;;-145.06;0.00;60892.56;4790296;28;20039;-90
2022/02/24 01:42:02;;;;;;;0.50;0.40;;;;;;;-145.06;0.00;60892.56;4799954;28;20062;-90
2022/02/24 01:44:44;;;;;;;1.70;0.70;;;;;;;-145.06;0.00;60892.56;4785430;28;20306;-90
2022/02/24 01:47:23;;;;;;;1.20;0.65;;;;;;;-145.06;0.00;60892.56;4784010;28;20031;-91
2022/02/24 01:50:05;;;;;;;1.20;0.60;;;;;;;10.68;0.00;60892.56;4787275;28;20030;-90
2022/02/24 01:52:44;;;;;;;0.80;0.63;;;;;;;-145.06;0.00;60892.56;4799000;28;20034;-90
2022/02/24 01:55:23;;;;;;;0.60;0.50;;;;;;;-145.06;0.00;60892.56;4796986;28;20070;-90
2022/02/24 01:58:03;;;;;;;1.93;0.60;;;;;;;-145.06;0.00;60892.56;4810147;28;20541;-91
2022/02/24 02:00:42;;;;;;;3.17;0.88;;;;;;;-145.06;0.00;60892.56;4796688;28;20034;-91
2022/02/24 02:03:21;;;;;;;0.75;0.52;;;;;;;-145.06;0.00;60892.56;4792339;28;20358;-90
2022/02/24 02:06:00;;;;;;;2.53;1.10;;;;;;;-145.06;0.00;60892.56;4787193;28;20031;-90
2022/02/24 02:08:40;;;;;;;1.27;0.77;;;;;;;-145.06;0.00;60892.56;4804286;28;20030;-91
2022/02/24 02:11:19;;;;;;;2.75;0.82;;;;;;;-145.06;0.00;60892.56;4789927;28;20419;-91
2022/02/24 02:13:58;;;;;;;0.73;0.53;;;;;;;-145.06;0.00;60892.56;4794513;28;20038;-90
2022/02/24 02:16:47;;;;;;;1.30;0.80;;;;;;;-145.06;0.00;60892.56;4787998;28;20034;-91
2022/02/24 02:19:28;;;;;;;;;;;;;;;-145.06;0.00;60892.56;4788165;28;20047;-91
2022/02/24 02:22:07;;;;;;;2.47;0.93;;;;;;;-145.06;0.00;60892.56;4795387;28;19914;-90
2022/02/24 02:25:00;;;;;;;1.48;0.68;;;;;;;-145.06;0.00;60892.56;4799531;28;20519;-90
2022/02/24 02:27:39;;;;;;;0.95;0.60;;;;;;;-145.06;0.00;60892.56;4786625;28;20035;-90
2022/02/24 02:30:19;;;;;;;1.40;0.70;;;;;;;-145.06;0.00;60892.56;4787691;28;20066;-91
2022/02/24 02:32:59;;;;;;;0.63;0.50;;;;;;;-145.06;0.00;60892.56;4799728;28;20042;-91
2022/02/24 02:35:38;;;;;;;0.77;0.60;;;;;;;-145.06;0.00;60892.56;4788482;28;20038;-91
2022/02/24 02:38:17;;;;;;;0.83;0.53;;;;;;;-145.06;0.00;60892.56;4800226;28;20034;-91
2022/02/24 02:40:56;;;;;;;1.55;0.63;;;;;;;-145.06;0.00;60892.56;4787112;28;20058;-90
2022/02/24 02:43:35;;;;;;;0.63;0.40;;;;;;;-145.06;0.00;60892.56;4787799;28;20030;-90
2022/02/24 02:46:14;;;;;;;1.00;0.70;;;;;;;-145.06;0.00;60892.56;4790334;28;20278;-90
2022/02/24 02:48:53;;;;;;;0.68;0.45;;;;;;;-145.06;0.00;60892.56;4787321;28;20117;-91
2022/02/24 02:51:32;;;;;;;1.60;0.40;;;;;;;-145.06;0.00;60892.56;4791755;28;20113;-91
2022/02/24 02:54:11;;;;;;;1.07;0.53;;;;;;;-145.06;0.00;60892.56;4793744;28;20066;-91
2022/02/24 02:56:51;;;;;;;1.27;0.50;;;;;;;-145.06;0.00;60892.56;4800640;28;20061;-90
2022/02/24 02:59:30;;;;;;;1.80;0.50;;;;;;;-145.06;0.00;60892.56;4785748;28;20286;-91
2022/02/24 03:02:10;;;;;;;1.08;0.43;;;;;;;-145.06;0.00;60892.56;4800172;28;20038;-90
2022/02/24 03:04:50;;;;;;;;;;;;;;;-145.06;0.00;60892.56;4778988;28;20042;-90
2022/02/24 03:07:29;;;;;;;0.40;0.40;;;;;;;-145.06;0.00;60892.56;4776183;28;19918;-91
2022/02/24 03:10:09;;;;;;;1.35;0.60;;;;;;;-145.06;0.00;60892.56;4789807;28;20030;-90
2022/02/24 03:12:48;;;;;;;1.15;0.60;;;;;;;-145.06;0.00;60892.56;4804420;28;20039;-90
2022/02/24 03:15:27;;;;;;;2.00;0.50;;;;;;;-145.06;0.00;60892.56;4813004;28;20027;-90
2022/02/24 03:18:06;;;;;;;0.30;0.30;;;;;;;-145.06;0.00;60892.56;4805897;28;20035;-90
2022/02/24 03:20:45;;;;;;;0.43;0.40;;;;;;;-145.06;0.00;60892.56;4798134;28;20062;-91
2022/02/24 03:23:24;;;;;;;1.65;0.65;;;;;;;10.03;0.00;60892.56;4785936;28;20062;-91
2022/02/24 03:26:03;;;;;;;1.25;0.63;;;;;;;-145.06;0.00;60892.56;4787217;28;20039;-90
2022/02/24 03:28:42;;;;;;;0.40;0.40;;;;;;;9.71;0.00;60892.56;4785703;28;20034;-91
2022/02/24 03:31:21;;;;;;;1.17;0.50;;;;;;;-145.06;0.00;60892.56;4804549;28;20026;-90
2022/02/24 03:34:00;;;;;;;1.42;0.63;;;;;;;9.55;0.00;60892.56;4786079;28;20039;-90
2022/02/24 03:36:39;;;;;;;1.67;0.50;;;;;;;-145.06;0.00;60892.56;4787329;28;20039;-90
2022/02/24 03:39:18;;;;;;;0.97;0.50;;;;;;;9.41;0.00;60892.56;4786215;28;20293;-90
2022/02/24 03:41:57;;;;;;;0.50;0.45;;;;;;;-145.06;0.00;60892.56;4798986;28;20034;-90
2022/02/24 03:44:36;;;;;;;0.63;0.50;;;;;;;9.55;0.00;60892.56;4779946;28;20034;-90
2022/02/24 03:47:15;;;;;;;0.75;0.63;;;;;;;10.68;0.00;60892.56;4795896;28;20478;-90
2022/02/24 03:49:54;;;;;;;0.80;0.60;;;;;;;-145.06;0.00;60892.56;4783520;28;20027;-89
2022/02/24 03:52:33;;;;;;;2.10;0.80;;;;;;;-145.06;0.00;60892.56;4800132;28;20035;-90
2022/02/24 03:55:12;;;;;;;1.83;0.70;;;;;;;-145.06;0.00;60892.56;4800436;28;20046;-90
2022/02/24 03:57:52;;;;;;;;;;;;;;;-145.06;0.00;60892.56;4800139;28;20023;-90
2022/02/24 04:00:31;;;;;;;1.30;0.60;;;;;;;9.44;0.00;60892.56;4795784;28;19910;-90
2022/02/24 04:03:10;;;;;;;2.40;1.00;;;;;;;-145.06;0.00;60892.56;4786631;28;20038;-91
2022/02/24 04:05:49;;;;;;;1.77;0.70;;;;;;;9.71;0.00;60892.56;4797484;28;20270;-90
2022/02/24 04:08:28;;;;;;;1.00;0.60;;;;;;;10.68;0.00;60892.56;4786908;28;20035;-90
2022/02/24 04:11:07;;;;;;;2.42;0.80;;;;;;;-145.06;0.00;60892.56;4801450;28;20366;-89
2022/02/24 04:13:46;;;;;;;3.20;1.02;;;;;;;-145.06;0.00;60892.56;4786431;28;20038;-90
2022/02/24 04:16:25;;;;;;;3.93;1.00;;;;;;;-145.06;0.00;60892.56;4786195;28;20046;-90
2022/02/24 04:19:04;;;;;;;1.40;0.77;;;;;;;-145.06;0.00;60892.56;4799239;28;20278;-90
2022/02/24 04:21:43;;;;;;;2.63;0.80;;;;;;;-145.06;0.00;60892.56;4786484;28;20366;-90
2022/02/24 04:24:22;;;;;;;1.83;0.68;;;;;;;-145.06;0.00;60892.56;4791113;28;20034;-89
2022/02/24 04:27:01;;;;;;;0.77;0.60;;;;;;;-145.06;0.00;60892.56;4800008;28;20043;-91
2022/02/24 04:29:40;;;;;;;3.88;1.00;;;;;;;-145.06;0.00;60892.56;4787446;28;20043;-89
2022/02/24 04:32:19;;;;;;;1.07;0.60;;;;;;;-145.06;0.00;60892.56;4797699;28;20435;-89
2022/02/24 04:34:58;;;;;;;2.45;0.80;;;;;;;9.62;0.00;60892.56;4781186;28;20039;-91
2022/02/24 04:37:37;;;;;;;1.38;0.75;;;;;;;-145.06;0.00;60892.56;4801165;28;20367;-90
2022/02/24 04:40:16;;;;;;;1.48;0.60;;;;;;;-145.06;0.00;60892.56;4790118;28;20042;-90
2022/02/24 04:42:55;;;;;;;1.48;0.60;;;;;;;21.08;0.00;60892.56;4786381;28;20114;-90
2022/02/24 04:45:34;;;;;;;0.80;0.63;;;;;;;-145.06;0.00;60892.56;4799961;28;20038;-89
2022/02/24 04:48:14;;;;;;;3.03;0.80;;;;;;;-145.06;0.00;60892.56;4785246;28;20038;-90
2022/02/24 04:50:53;;;;;;;1.75;0.98;;;;;;;-145.06;0.00;60892.56;4800394;28;20270;-90
2022/02/24 04:53:32;;;;;;;1.10;0.77;;;;;;;-145.06;0.00;60892.56;4802140;28;20039;-89
2022/02/24 04:56:11;;;;;;;1.50;0.80;;;;;;;-145.06;0.00;60892.56;4790716;28;20035;-90
2022/02/24 04:58:50;;;;;;;2.15;0.80;;;;;;;-145.06;0.00;60892.56;4802025;28;20272;-90
2022/02/24 05:01:29;;;;;;;2.37;0.70;;;;;;;-145.06;0.00;60892.56;4783743;28;20038;-90
2022/02/24 05:04:08;;;;;;;2.40;1.00;;;;;;;-145.06;0.00;60892.56;4788265;28;20361;-90
2022/02/24 05:06:48;;;;;;;1.05;0.73;;;;;;;-145.06;0.00;60892.56;4804195;28;20034;-90
2022/02/24 05:09:26;;;;;;;2.00;0.52;;;;;;;-145.06;0.00;60892.56;4804647;28;20042;-88
2022/02/24 05:12:06;;;;;;;1.60;0.70;;;;;;;-145.06;0.00;60892.56;4804459;28;20489;-91
2022/02/24 05:14:45;;;;;;;0.82;0.57;;;;;;;-145.06;0.00;60892.56;4788096;28;20489;-90
2022/02/24 05:17:24;;;;;;;1.60;0.80;;;;;;;-145.06;0.00;60892.56;4788846;28;20374;-91
2022/02/24 05:20:03;;;;;;;1.27;0.73;;;;;;;-145.06;0.00;60892.56;4788021;28;20581;-90
2022/02/24 05:22:43;;;;;;;1.55;0.60;;;;;;;-145.06;0.00;60892.56;4803133;28;20042;-90
2022/02/24 05:25:22;;;;;;;0.85;0.50;;;;;;;-145.06;0.00;60892.56;4790592;28;20441;-90
2022/02/24 05:28:07;;;;;;;1.53;0.60;;;;;;;-145.06;0.00;60892.56;4782817;28;20027;-90
2022/02/24 05:30:45;;;;;;;0.88;0.50;;;;;;;-145.06;0.00;60892.56;4793080;28;20031;-90
2022/02/24 05:33:29;;;;;;;1.52;0.70;;;;;;;-145.06;0.00;60892.56;4790188;28;20030;-91
2022/02/24 05:36:08;;;;;;;1.05;0.52;;;;;;;-145.06;0.00;60892.56;4801616;28;20085;-89
2022/02/24 05:38:47;;;;;;;1.38;0.50;;;;;;;-145.06;0.00;60892.56;4786151;28;20035;-89
2022/02/24 05:41:26;;;;;;;0.70;0.40;;;;;;;-145.06;0.00;60892.56;4797089;28;20042;-90
2022/02/24 05:44:05;;;;;;;1.40;0.60;;;;;;;-145.06;0.00;60892.56;4787539;28;20038;-90
2022/02/24 05:46:45;;;;;;;1.35;0.50;;;;;;;-145.06;0.00;60892.56;4801329;28;20047;-91
2022/02/24 05:49:24;;;;;;;0.75;0.52;;;;;;;-145.06;0.00;60892.56;4801315;28;20034;-90
2022/02/24 05:52:05;;;;;;;1.38;0.45;;;;;;;9.41;0.00;60892.56;4799141;28;20046;-89
2022/02/24 05:54:46;;;;;;;1.83;0.60;;;;;;;-145.06;0.00;60892.56;4788109;28;20074;-90
2022/02/24 05:57:26;;;;;;;1.77;0.70;;;;;;;-145.06;0.00;60892.56;4791936;28;20062;-89
2022/02/24 06:00:05;;;;;;;2.20;0.70;;;;;;;-145.06;0.00;60892.56;4798464;28;20066;-90
2022/02/24 06:02:44;;;;;;;0.90;0.60;;;;;;;9.35;0.00;60892.56;4802161;28;20372;-89
2022/02/24 06:05:23;;;;;;;1.00;0.52;;;;;;;-145.06;0.00;60892.56;4800616;28;20058;-89
2022/02/24 06:08:02;;;;;;;1.03;0.70;;;;;;;-145.06;0.00;60892.56;4795450;28;20030;-91
2022/02/24 06:10:40;;;;;;;3.40;0.70;;;;;;;-145.06;0.00;60892.56;4800975;28;20042;-90
2022/02/24 06:13:19;;;;;;;1.33;0.50;;;;;;;-145.06;0.00;60892.56;4786245;28;20501;-90
2022/02/24 06:16:00;;;;;;;1.40;0.60;;;;;;;-145.06;0.00;60892.56;4785198;28;20030;-89
2022/02/24 06:18:41;;;;;;;1.10;0.50;;;;;;;-145.06;0.00;60892.56;4796476;28;20603;-90
2022/02/24 06:21:20;;;;;;;0.98;0.50;;;;;;;-145.06;0.00;60892.56;4799593;28;20149;-90
2022/02/24 06:23:59;;;;;;;1.30;0.70;;;;;;;-145.06;0.00;60892.56;4782740;28;20121;-89
2022/02/24 06:26:38;;;;;;;2.75;0.60;;;;;;;-145.06;0.00;60892.56;4797818;28;20282;-90
2022/02/24 06:29:17;;;;;;;2.07;0.70;;;;;;;-145.06;0.00;60892.56;4796756;28;20477;-89
2022/02/24 06:31:55;;;;;;;1.60;0.80;;;;;;;-145.06;0.00;60892.56;4783163;28;20366;-90
2022/02/24 06:34:34;;;;;;;4.23;0.90;;;;;;;-145.06;0.00;60892.56;4784806;28;20042;-90
2022/02/24 06:37:14;;;;;;;1.45;0.73;;;;;;;-145.06;0.00;60892.56;4784587;28;20528;-90
2022/02/24 06:39:53;;;;;;;2.17;0.90;;;;;;;-145.06;0.00;60892.56;4784876;28;20114;-89
2022/02/24 06:42:32;;;;;;;2.15;0.73;;;;;;;-145.06;0.00;60892.56;4797380;28;20382;-90
2022/02/24 06:45:11;;;;;;;1.60;0.60;;;;;;;-145.06;0.00;60892.56;4785254;28;20046;-90
2022/02/24 06:47:50;;;;;;;1.42;0.50;;;;;;;-145.06;0.00;60892.56;4807439;28;20039;-91
2022/02/24 06:50:29;;;;;;;1.13;0.57;;;;;;;-145.06;0.00;60892.56;4808125;28;20489;-88
2022/02/24 06:53:08;;;;;;;1.60;0.70;;;;;;;-145.06;0.00;60892.56;4780353;28;20424;-90
2022/02/24 06:55:47;;;;;;;0.60;0.50;;;;;;;-145.06;0.00;60892.56;4778174;28;20122;-88
2022/02/24 06:58:26;;;;;;;2.50;0.60;;;;;;;-145.06;0.00;60892.56;4773250;28;20382;-90
2022/02/24 07:01:06;;;;;;;0.77;0.50;;;;;;;-145.06;0.00;60892.56;4778847;28;20039;-89
2022/02/24 07:03:44;;;;;;;0.57;0.50;;;;;;;-145.06;0.00;60892.56;4777136;28;20394;-89
2022/02/24 07:06:23;;;;;;;2.03;0.70;;;;;;;-145.06;0.00;60892.56;4762439;29;20043;-90
2022/02/24 07:09:02;;;;;;;1.27;0.67;;;;;;;-145.06;0.00;60892.56;4765081;29;20059;-90
2022/02/24 07:11:41;;;;;;;1.00;0.57;;;;;;;-145.06;0.00;60892.56;4759005;28;20710;-90
2022/02/24 07:14:21;;;;;;;1.48;0.73;;;;;;;-145.06;0.00;60892.56;4779084;29;20039;-90
2022/02/24 07:17:00;;;;;;;1.08;0.50;;;;;;;-145.06;0.00;60892.56;4784228;28;20374;-91
2022/02/24 07:19:39;;;;;;;1.03;0.60;;;;;;;-145.06;0.00;60892.56;4764287;29;20070;-90
2022/02/24 07:22:18;;;;;;;1.60;0.53;;;;;;;-145.06;0.00;60892.56;4762293;29;20032;-89
2022/02/24 07:24:56;;;;;;;0.93;0.53;;;;;;;-145.06;0.00;60892.56;4764539;29;20484;-89
2022/02/24 07:27:36;;;;;;;2.50;0.60;;;;;;;-145.06;0.00;60892.56;4766539;29;20042;-89
2022/02/24 07:30:15;;;;;;;1.50;0.77;;;;;;;-145.06;0.00;60892.56;4782307;29;20358;-90
2022/02/24 07:32:54;;;;;;;0.82;0.43;;;;;;;-145.06;0.00;60892.56;4767777;29;20027;-89
2022/02/24 07:35:33;;;;;;;1.38;0.60;;;;;;;-145.06;0.00;60892.56;4784720;28;20039;-89
2022/02/24 07:38:13;;;;;;;0.77;0.50;;;;;;;-145.06;0.00;60892.56;4770000;29;20359;-91
2022/02/24 07:40:51;;;;;;;0.80;0.60;;;;;;;10.68;0.00;60892.56;4765824;29;20074;-89
2022/02/24 07:43:32;;;;;;;0.85;0.60;;;;;;;-145.06;0.00;60892.56;4775551;29;20035;-89
2022/02/24 07:46:11;;;;;;;0.77;0.40;;;;;;;-145.06;0.00;60892.56;4768799;29;20383;-90
2022/02/24 07:48:52;;;;;;;1.55;0.60;;;;;;;-145.06;0.00;60892.56;4771159;29;20031;-90
2022/02/24 07:51:31;;;;;;;0.98;0.45;;;;;;;-145.06;0.00;60892.56;4782070;29;20121;-89
2022/02/24 07:54:10;;;;;;;2.00;0.50;;;;;;;-145.06;0.00;60892.56;4775107;28;20102;-89
2022/02/24 07:56:52;;;;;;;1.02;0.70;;;;;;;-145.06;0.00;60892.56;4782236;29;20478;-90
2022/02/24 07:59:32;;;;;;;0.70;0.43;;;;;;;-145.06;0.00;60892.56;4781970;29;20035;-88
2022/02/24 08:02:11;;;;;;;1.60;0.70;;;;;;;-145.06;0.00;60892.56;4775610;29;20043;-89
2022/02/24 08:04:50;;;;;;;1.25;0.70;;;;;;;-145.06;0.00;60892.56;4763793;29;20035;-89
2022/02/24 08:07:28;;;;;;;1.63;0.63;;;;;;;-145.06;0.00;60892.56;4767851;29;20485;-89
2022/02/24 08:10:08;;;;;;;1.20;0.63;;;;;;;-145.06;0.00;60892.56;4779762;28;20031;-89
2022/02/24 08:12:47;;;;;;;2.25;0.60;;;;;;;9.77;0.00;60892.56;4782762;28;20027;-90
2022/02/24 08:15:26;;;;;;;1.38;0.55;;;;;;;-145.06;0.00;60892.56;4780581;29;20035;-89
2022/02/24 08:18:05;;;;;;;1.52;0.65;;;;;;;-145.06;0.00;60892.56;4766623;29;20015;-89
2022/02/24 08:20:44;;;;;;;0.90;0.60;;;;;;;-145.06;0.00;60892.56;4764703;28;20027;-88
2022/02/24 08:23:23;;;;;;;0.80;0.60;;;;;;;9.78;0.00;60892.56;4781588;29;20032;-90
2022/02/24 08:26:02;;;;;;;1.15;0.60;;;;;;;-145.06;0.00;60892.56;4784913;29;20035;-89
2022/02/24 08:28:41;;;;;;;1.17;0.65;;;;;;;-145.06;0.00;60892.56;4784274;29;20035;-88
2022/02/24 08:31:20;;;;;;;1.07;0.60;;;;;;;-145.06;0.00;60892.56;4771890;29;20548;-89
2022/02/24 08:33:59;;;;;;;1.10;0.60;;;;;;;-145.06;0.00;60892.56;4771228;29;20354;-90
2022/02/24 08:36:38;;;;;;;0.65;0.50;;;;;;;-145.06;0.00;60892.56;4784531;28;20035;-90
2022/02/24 08:39:23;;;;;;;1.60;0.70;;;;;;;-145.06;0.00;60892.56;4770387;29;20759;-90
2022/02/24 08:42:02;;;;;;;0.57;0.40;;;;;;;-145.06;0.00;60892.56;4784727;29;20039;-89
2022/02/24 08:44:43;;;;;;;0.50;0.30;;;;;;;-145.06;0.00;60892.56;4784607;29;20105;-90
2022/02/24 08:47:23;;;;;;;0.95;0.40;;;;;;;-145.06;0.00;60892.56;4757370;29;20686;-88
2022/02/24 08:50:04;;;;;;;0.80;0.50;;;;;;;-145.06;0.00;60892.56;4785183;29;20031;-89
2022/02/24 08:52:43;;;;;;;0.95;0.50;;;;;;;-145.06;0.00;60892.56;4771525;29;20062;-90
2022/02/24 08:55:22;;;;;;;0.82;0.50;;;;;;;-145.06;0.00;60892.56;4770396;29;20039;-90
2022/02/24 08:58:02;;;;;;;2.03;0.70;;;;;;;-145.06;0.00;60892.56;4773314;29;20734;-91
2022/02/24 09:00:46;;;;;;;;;;;;;;;-145.06;0.00;60892.56;4786163;29;20035;-90
2022/02/24 09:03:25;;;;;;;0.70;0.50;;;;;;;-145.06;0.00;60892.56;4784019;29;20380;-88
2022/02/24 09:06:04;;;;;;;1.00;0.73;;;;;;;-145.06;0.00;60892.56;4784078;29;20034;-89
2022/02/24 09:08:44;;;;;;;1.38;0.70;;;;;;;-145.06;0.00;60892.56;4770781;29;20050;-90
2022/02/24 09:11:24;;;;;;;1.10;0.60;;;;;;;-145.06;0.00;60892.56;4773943;28;20027;-90
2022/02/24 09:14:04;;;;;;;1.23;0.63;;;;;;;187.52;0.00;60892.56;4772684;29;20031;-91
2022/02/24 09:16:43;;;;;;;1.45;0.57;;;;;;;-145.06;0.00;60892.56;4768927;28;20035;-89
2022/02/24 09:19:22;;;;;;;1.13;0.55;;;;;;;-145.06;0.00;60892.56;4772857;29;20043;-90
2022/02/24 09:22:01;;;;;;;3.03;0.80;;;;;;;-145.06;0.00;60892.56;4764084;29;20031;-90
2022/02/24 09:24:40;;;;;;;1.27;0.70;;;;;;;-145.06;0.00;60892.56;4780683;28;20068;-91
2022/02/24 09:27:20;;;;;;;1.67;0.70;;;;;;;-145.06;0.00;60892.56;4765552;29;20027;-90
2022/02/24 09:29:59;;;;;;;2.20;0.90;;;;;;;-145.06;0.00;60892.56;4784601;28;20031;-90
2022/02/24 09:32:39;;;;;;;2.25;0.90;;;;;;;-145.06;0.00;60892.56;4769923;29;20278;-89
2022/02/24 09:35:18;;;;;;;3.72;0.98;;;;;;;-145.06;0.00;60892.56;4784851;28;20027;-90
2022/02/24 09:37:57;;;;;;;2.47;1.10;;;;;;;-145.06;0.00;60892.56;4784322;29;20031;-89
2022/02/24 09:40:36;;;;;;;2.72;0.98;;;;;;;-145.06;0.00;60892.56;4782998;29;20047;-90
2022/02/24 09:43:16;;;;;;;2.13;0.90;;;;;;;-145.06;0.00;60892.56;4751286;29;20036;-90
2022/02/24 09:46:01;;;;;;;2.22;1.00;;;;;;;-145.06;0.00;60892.56;4782997;28;20776;-89
2022/02/24 09:48:42;;;;;;;1.58;0.80;;;;;;;-145.06;0.00;60892.56;4772026;29;20036;-88
2022/02/24 09:51:21;;;;;;;0.93;0.82;;;;;;;-145.06;0.00;60892.56;4782454;29;20042;-89
2022/02/24 09:54:01;;;;;;;1.00;0.70;;;;;;;-145.06;0.00;60892.56;4781994;29;20027;-89
2022/02/24 09:56:39;;;;;;;1.25;0.80;;;;;;;-145.06;0.00;60892.56;4769190;29;20031;-89
2022/02/24 09:59:19;;;;;;;1.10;0.80;;;;;;;-145.06;0.00;60892.56;4780504;29;20031;-89
2022/02/24 10:02:00;;;;;;;1.00;0.70;;;;;;;-145.06;0.00;60892.56;4783112;29;20035;-90
2022/02/24 10:05:02;;;;;;;1.90;1.00;;;;;;;-145.06;0.00;60892.56;4782794;28;20263;-89
2022/02/24 10:07:43;;;;;;;4.03;0.90;;;;;;;-145.06;0.00;60892.56;4778932;29;20043;-88
2022/02/24 10:10:31;;;;;;;1.05;0.80;;;;;;;-145.06;0.00;60892.56;4763372;29;20023;-89
2022/02/24 10:13:13;;;;;;;1.35;0.77;;;;;;;-145.06;0.00;60892.56;4769771;29;20031;-89
2022/02/24 10:15:57;;;;;;;2.05;1.00;;;;;;;-145.06;0.00;60892.56;4782591;29;20461;-90
2022/02/24 10:18:38;;;;;;;1.90;0.95;;;;;;;-145.06;0.00;60892.56;4803648;29;20410;-90
2022/02/24 10:21:18;;;;;;;1.40;1.02;;;;;;;-145.06;0.00;60892.56;4774751;29;20031;-90
2022/02/24 10:23:57;;;;;;;1.58;0.90;;;;;;;-145.06;0.00;60892.56;4783479;29;20043;-89
2022/02/24 10:26:36;;;;;;;1.92;1.02;;;;;;;-145.06;0.00;60892.56;4769167;29;20206;-89
2022/02/24 10:29:16;;;;;;;1.57;1.00;;;;;;;-145.06;0.00;60892.56;4768977;29;20031;-90
2022/02/24 10:31:55;;;;;;;1.20;0.95;;;;;;;-145.06;0.00;60892.56;4768899;29;20031;-89
2022/02/24 10:34:34;;;;;;;1.20;0.93;;;;;;;-145.06;0.00;60892.56;4769207;29;20114;-90
2022/02/24 10:37:13;;;;;;;0.90;0.70;;;;;;;-145.06;0.00;60892.56;4782352;29;20023;-89
2022/02/24 10:40:02;;;;;;;1.47;0.90;;;;;;;10.12;0.00;60892.56;4779577;29;20274;-90
2022/02/24 10:42:42;;;;;;;2.10;0.98;;;;;;;-145.06;0.00;60892.56;4782089;28;20031;-90
2022/02/24 10:45:24;;;;;;;0.63;0.50;;;;;;;-145.06;0.00;60892.56;4767957;29;20035;-90
2022/02/24 10:48:07;;;;;;;1.45;0.77;;;;;;;-145.06;0.00;60892.56;4769421;29;20549;-90
2022/02/24 10:50:58;;;;;;;1.15;0.60;;;;;;;10.43;0.00;80153.00;4782598;29;20489;-90
2022/02/24 10:53:37;;;;;;;0.88;0.50;;;;;;;-145.06;0.00;60892.56;4768365;29;20109;-89
2022/02/24 10:56:16;;;;;;;1.02;0.93;;;;;;;187.52;0.00;60892.56;4782389;29;20432;-90
2022/02/24 10:58:55;;;;;;;2.20;0.90;;;;;;;-145.06;0.00;60892.56;4769202;29;20039;-90
2022/02/24 11:01:34;;;;;;;1.30;1.00;;;;;;;-145.06;0.00;60892.56;4768686;29;20031;-90
2022/02/24 11:04:14;;;;;;;2.25;1.02;;;;;;;10.68;0.00;60892.56;4776925;29;20031;-90
2022/02/24 11:06:54;;;;;;;1.75;0.98;;;;;;;11.33;0.00;60892.56;4767908;29;20209;-90
2022/02/24 11:09:35;;;;;;;;;;;;;;;-145.06;0.00;60892.56;4782957;29;20027;-90
2022/02/24 11:12:16;;;;;;;2.50;1.20;;;;;;;-145.06;0.00;60892.56;4765922;29;20445;-92
2022/02/24 11:14:56;;;;;;;5.43;1.30;;;;;;;-145.06;0.00;60892.56;4764026;29;20031;-90
2022/02/24 11:17:37;;;;;;;3.83;1.17;;;;;;;-145.06;0.00;60892.56;4781736;28;20477;-90
2022/02/24 11:20:16;;;;;;;3.95;1.33;;;;;;;-145.06;0.00;60892.56;4768056;29;20035;-90
2022/02/24 11:22:55;;;;;;;3.13;1.23;;;;;;;-145.06;0.00;60892.56;4782418;29;20039;-89
2022/02/24 11:25:42;;;;;;;3.35;1.40;;;;;;;10.68;0.00;60892.56;4781247;29;20043;-89
2022/02/24 11:28:22;;;;;;;3.45;1.20;;;;;;;-145.06;0.00;60892.56;4769128;29;20039;-91
2022/02/24 11:31:22;;;;;;;3.97;1.30;;;;;;;-145.06;0.00;60892.56;4767937;29;20035;-89
2022/02/24 11:34:01;;;;;;;3.70;1.20;;;;;;;-145.06;0.00;60892.56;4782167;29;20031;-89
2022/02/24 11:36:44;;;;;;;2.17;1.10;;;;;;;-145.06;0.00;60892.56;4763368;29;20485;-89
2022/02/24 11:39:23;;;;;;;3.13;1.45;;;;;;;-145.06;0.00;60892.56;4749421;29;20485;-89
2022/02/24 11:42:03;;;;;;;3.90;1.20;;;;;;;-145.06;0.00;60892.56;4768480;28;20119;-90
2022/02/24 11:44:42;;;;;;;2.92;1.10;;;;;;;-145.06;0.00;60892.56;4783774;28;20110;-89
2022/02/24 11:47:22;;;;;;;3.65;1.30;;;;;;;-145.06;0.00;60892.56;4780060;29;20040;-89
2022/02/24 11:50:01;;;;;;;2.65;1.48;;;;;;;-145.06;0.00;60892.56;4767968;29;20035;-89
2022/02/24 11:52:46;;;;;;;4.03;1.42;;;;;;;-145.06;0.00;60892.56;4765623;29;20063;-88
2022/02/24 11:55:48;;;;;;;3.72;1.30;;;;;;;-145.06;0.00;60892.56;4772465;28;20078;-89
2022/02/24 11:58:50;;;;;;;2.33;1.08;;;;;;;-145.06;0.00;60892.56;4764991;29;20035;-89
2022/02/24 12:01:30;;;;;;;3.17;1.58;;;;;;;-145.06;0.00;60892.56;4766479;29;20027;-89
2022/02/24 12:04:18;;;;;;;3.53;1.42;;;;;;;-145.06;0.00;60892.56;4770927;29;20062;-89
2022/02/24 12:07:11;;;;;;;2.42;0.90;;;;;;;-145.06;0.00;60892.56;4781417;29;20528;-89
2022/02/24 12:10:11;;;;;;;1.48;0.93;;;;;;;-145.06;0.00;60892.56;4784477;28;20039;-89
2022/02/24 12:12:52;;;;;;;2.13;0.70;;;;;;;-145.06;0.00;60892.56;4778832;29;20035;-88
2022/02/24 12:15:31;;;;;;;1.77;0.82;;;;;;;-145.06;0.00;60892.56;4773201;29;20039;-88
2022/02/24 12:18:17;;;;;;;1.83;1.10;;;;;;;-145.06;0.00;60892.56;4771218;29;20062;-89
2022/02/24 12:21:28;;;;;;;1.77;0.77;;;;;;;-145.06;0.00;60892.56;4775930;29;20374;-88
2022/02/24 12:24:12;;;;;;;1.70;0.70;;;;;;;11.61;0.00;60892.56;4781984;29;20043;-89
2022/02/24 12:26:51;;;;;;;2.47;0.77;;;;;;;11.71;0.00;60892.56;4784152;29;20039;-89
2022/02/24 12:29:37;;;;;;;1.30;0.68;;;;;;;-145.06;0.00;60892.56;4772893;29;20035;-87